Time;durP1;ratioP1;P1;durP2;ratioP2;P2;SDS_P1;SDS_P2;PMS_P1;PMS_P2;Temp;Humidity;BMP_temperature;BMP_pressure;BME280_temperature;BME280_humidity;BME280_pressure;Samples;Min_cycle;Max_cycle;Signal;HPM_P1;HPM_P2
2023/09/28 00:01:16;;;;;;;20.30;16.00;;;;;;;17.02;62.39;100936.08;109566;1271;22071;-82
2023/09/28 00:03:59;;;;;;;20.70;15.90;;;;;;;17.01;62.49;100937.35;109635;1271;23702;-81
2023/09/28 00:06:36;;;;;;;20.50;16.00;;;;;;;16.99;62.78;100939.73;109876;1265;23615;-81
2023/09/28 00:09:22;;;;;;;25.20;16.60;;;;;;;17.00;63.05;100940.95;110355;1265;22026;-81
2023/09/28 00:12:06;;;;;;;22.90;16.20;;;;;;;17.00;63.10;100940.75;110559;1264;22836;-80
2023/09/28 00:15:00;;;;;;;17.60;15.80;;;;;;;16.99;63.17;100938.90;110890;1259;23586;-82
2023/09/28 00:17:53;;;;;;;18.10;15.50;;;;;;;16.97;63.45;100939.84;111175;1254;23754;-82
2023/09/28 00:20:36;;;;;;;20.70;17.20;;;;;;;16.91;63.49;100929.81;111048;1259;21996;-79
2023/09/28 00:23:27;;;;;;;26.30;17.00;;;;;;;16.95;63.70;100931.88;110924;1258;22747;-81
2023/09/28 00:26:22;;;;;;;19.60;17.50;;;;;;;16.92;63.84;100931.88;110554;1264;21965;-80
2023/09/28 00:29:24;;;;;;;25.60;17.30;;;;;;;16.89;64.05;100929.24;110617;1264;21964;-81
2023/09/28 00:31:58;;;;;;;24.40;17.70;;;;;;;16.86;64.11;100917.44;109696;1268;22501;-81
2023/09/28 00:35:00;;;;;;;;;;;;;;;;;;;;;
2023/09/28 00:37:59;;;;;;;18.00;16.30;;;;;;;16.78;64.45;100914.72;109575;1268;22330;-79
2023/09/28 00:40:58;;;;;;;20.40;17.30;;;;;;;16.83;64.54;100921.31;109881;1268;21980;-80
2023/09/28 00:43:34;;;;;;;23.40;17.50;;;;;;;16.80;64.63;100921.09;109830;1265;22829;-81
2023/09/28 00:46:35;;;;;;;22.40;17.60;;;;;;;16.75;64.77;100921.00;110333;1265;23081;-80
2023/09/28 00:49:33;;;;;;;18.80;16.50;;;;;;;16.73;65.06;100920.24;110250;1260;23576;-81
2023/09/28 00:52:33;;;;;;;;;;;;;;;;;;;;;
2023/09/28 00:58:29;;;;;;;20.10;17.10;;;;;;;16.64;65.33;100908.43;109809;1271;24293;-79
2023/09/28 01:01:35;;;;;;;23.60;18.30;;;;;;;16.63;65.47;100906.59;109526;1271;21984;-79
2023/09/28 01:04:29;;;;;;;18.50;16.70;;;;;;;16.63;65.66;100908.34;108879;1273;23621;-81
2023/09/28 01:07:39;;;;;;;18.80;15.90;;;;;;;16.62;65.74;100905.52;108981;1277;23123;-80
2023/09/28 01:10:24;;;;;;;20.90;18.80;;;;;;;16.59;65.72;100905.17;109078;1275;21992;-80
2023/09/28 01:13:43;;;;;;;24.10;16.80;;;;;;;16.53;65.76;100905.32;109102;1277;23728;-81
2023/09/28 01:16:26;;;;;;;19.70;17.70;;;;;;;16.50;65.84;100908.98;109030;1271;23682;-80
2023/09/28 01:19:23;;;;;;;22.70;18.80;;;;;;;16.48;66.03;100912.64;109689;1271;21994;-81
2023/09/28 01:22:16;;;;;;;22.60;17.70;;;;;;;16.46;66.15;100908.72;110012;1264;21979;-81
2023/09/28 01:24:51;;;;;;;24.60;18.90;;;;;;;16.43;66.17;100909.89;110342;1264;21967;-81
2023/09/28 01:27:25;;;;;;;21.00;18.70;;;;;;;16.41;66.19;100909.46;110347;1264;21964;-80
2023/09/28 01:30:23;;;;;;;24.20;19.50;;;;;;;16.39;66.18;100909.23;110693;1262;23113;-81
2023/09/28 01:33:04;;;;;;;20.40;18.00;;;;;;;16.34;66.29;100909.83;110675;1262;21994;-81
2023/09/28 01:35:53;;;;;;;22.60;19.00;;;;;;;16.31;66.56;100909.46;110896;1254;22025;-79
2023/09/28 01:38:52;;;;;;;23.70;21.00;;;;;;;16.29;66.71;100905.88;111268;1246;21977;-81
2023/09/28 01:41:36;;;;;;;29.00;21.20;;;;;;;16.25;66.85;100903.30;110975;1259;21950;-79
2023/09/28 01:44:25;;;;;;;21.80;19.60;;;;;;;16.21;66.97;100904.18;110822;1259;22237;-81
2023/09/28 01:46:58;;;;;;;21.00;19.10;;;;;;;16.22;67.17;100904.69;110872;1259;22290;-81
2023/09/28 01:49:37;;;;;;;23.40;21.00;;;;;;;16.20;67.22;100899.84;110809;1259;21950;-81
2023/09/28 01:52:10;;;;;;;26.70;21.40;;;;;;;16.20;67.32;100902.15;110984;1259;22966;-80
2023/09/28 01:54:46;;;;;;;22.30;20.10;;;;;;;16.18;67.33;100905.58;110931;1258;24982;-79
2023/09/28 01:57:33;;;;;;;22.10;20.10;;;;;;;16.16;67.36;100906.59;109993;1266;22897;-81
2023/09/28 02:00:24;;;;;;;25.70;20.50;;;;;;;16.13;67.47;100910.07;110068;1267;23063;-80
2023/09/28 02:03:11;;;;;;;24.20;21.60;;;;;;;16.09;67.51;100909.59;110138;1267;21974;-80
2023/09/28 02:05:57;;;;;;;26.40;21.10;;;;;;;16.06;67.60;100911.14;110263;1267;22376;-81
2023/09/28 02:08:34;;;;;;;22.60;20.50;;;;;;;16.03;67.69;100909.20;109993;1267;21954;-81
2023/09/28 02:11:11;;;;;;;20.10;18.00;;;;;;;16.00;67.63;100906.16;110284;1267;22946;-79
2023/09/28 02:13:49;;;;;;;22.20;20.10;;;;;;;15.96;67.77;100907.41;109744;1267;22725;-80
2023/09/28 02:16:33;;;;;;;22.20;19.90;;;;;;;15.91;67.73;100906.27;109798;1267;22329;-80
2023/09/28 02:19:15;;;;;;;23.70;21.00;;;;;;;15.87;67.77;100901.59;110605;1261;21977;-79
2023/09/28 02:22:18;;;;;;;26.30;23.30;;;;;;;15.77;67.87;100899.08;110852;1261;22465;-81
2023/09/28 02:25:26;;;;;;;23.60;21.40;;;;;;;15.69;68.08;100897.39;110761;1261;24382;-80
2023/09/28 02:28:07;;;;;;;25.80;22.50;;;;;;;15.65;68.23;100897.23;110804;1261;21960;-81
2023/09/28 02:31:21;;;;;;;27.50;22.50;;;;;;;15.61;68.37;100897.42;110848;1260;21982;-79
2023/09/28 02:34:19;;;;;;;24.80;22.50;;;;;;;15.54;68.63;100895.11;110890;1254;23450;-79
2023/09/28 02:36:54;;;;;;;26.50;23.50;;;;;;;15.52;68.82;100894.88;111164;1254;23579;-81
2023/09/28 02:39:45;;;;;;;26.80;23.60;;;;;;;15.51;68.85;100897.90;111244;1254;21971;-79
2023/09/28 02:42:27;;;;;;;28.50;23.30;;;;;;;15.49;68.99;100898.88;110668;1260;23581;-80
2023/09/28 02:45:32;;;;;;;26.90;23.20;;;;;;;15.44;69.00;100900.71;110903;1260;21994;-80
2023/09/28 02:48:21;;;;;;;26.10;23.20;;;;;;;15.38;69.30;100905.20;110295;1265;23029;-81
2023/09/28 02:51:22;;;;;;;26.60;24.00;;;;;;;15.32;69.39;100904.11;110307;1265;23689;-80
2023/09/28 02:54:08;;;;;;;26.30;23.70;;;;;;;15.28;69.68;100900.45;109563;1271;22337;-81
2023/09/28 02:57:00;;;;;;;25.10;22.70;;;;;;;15.25;69.82;100898.30;109479;1273;21979;-79
2023/09/28 03:00:32;;;;;;;26.90;24.50;;;;;;;15.23;69.91;100897.33;109231;1272;21977;-80
2023/09/28 03:03:10;;;;;;;28.20;25.30;;;;;;;15.19;69.93;100900.67;109523;1272;22421;-80
2023/09/28 03:05:59;;;;;;;27.70;24.60;;;;;;;15.17;69.80;100898.52;109447;1267;21990;-80
2023/09/28 03:08:40;;;;;;;26.80;24.00;;;;;;;15.14;69.92;100896.21;110334;1267;22003;-81
2023/09/28 03:11:29;;;;;;;24.90;22.40;;;;;;;15.14;70.21;100893.93;110144;1262;23031;-80
2023/09/28 03:14:40;;;;;;;27.60;24.50;;;;;;;15.14;70.23;100893.20;110785;1262;21987;-80
2023/09/28 03:17:19;;;;;;;28.50;25.80;;;;;;;15.11;70.37;100895.13;110766;1258;21983;-80
2023/09/28 03:19:51;;;;;;;29.60;26.70;;;;;;;15.12;70.46;100896.13;110876;1258;21979;-80
2023/09/28 03:22:21;;;;;;;29.40;26.20;;;;;;;15.13;70.55;100895.89;110909;1258;21967;-81
2023/09/28 03:24:55;;;;;;;29.20;26.20;;;;;;;15.14;70.73;100891.46;110444;1264;23695;-79
2023/09/28 03:27:25;;;;;;;28.70;26.00;;;;;;;15.06;71.07;100894.29;109987;1260;23756;-80
2023/09/28 03:29:58;;;;;;;28.80;25.80;;;;;;;15.07;70.97;100894.27;110830;1260;22455;-80
2023/09/28 03:32:36;;;;;;;28.40;25.20;;;;;;;15.08;70.91;100900.20;110850;1260;21993;-81
2023/09/28 03:35:14;;;;;;;29.50;26.40;;;;;;;15.07;70.93;100899.36;108591;1260;22241;-79
2023/09/28 03:37:58;;;;;;;29.20;26.70;;;;;;;15.07;70.91;100901.83;110819;1260;21950;-80
2023/09/28 03:40:43;;;;;;;29.40;26.50;;;;;;;15.04;70.96;100900.19;110476;1265;21989;-80
2023/09/28 03:43:29;;;;;;;29.40;26.70;;;;;;;15.01;71.04;100899.64;110807;1259;21961;-79
2023/09/28 03:46:01;;;;;;;30.40;27.50;;;;;;;15.00;71.13;100899.84;110975;1259;22990;-79
2023/09/28 03:48:37;;;;;;;34.80;27.20;;;;;;;15.00;71.19;100902.16;110734;1259;21961;-80
2023/09/28 03:51:10;;;;;;;39.70;27.00;;;;;;;14.96;71.30;100896.19;110907;1259;21967;-80
2023/09/28 03:53:43;;;;;;;29.40;26.30;;;;;;;14.97;71.27;100908.40;110381;1263;21985;-81
2023/09/28 03:56:16;;;;;;;29.30;25.10;;;;;;;14.95;71.25;100907.98;109949;1268;21979;-80
2023/09/28 03:58:57;;;;;;;29.60;26.80;;;;;;;14.94;71.35;100908.74;109862;1264;22272;-81
2023/09/28 04:01:32;;;;;;;32.30;27.20;;;;;;;14.91;71.26;100906.41;110090;1265;22266;-81
2023/09/28 04:04:16;;;;;;;29.00;26.10;;;;;;;14.88;71.21;100903.06;110482;1264;21972;-80
2023/09/28 04:06:49;;;;;;;29.50;26.20;;;;;;;14.72;71.30;100883.61;109534;1270;23049;-80
2023/09/28 04:09:25;;;;;;;26.30;23.40;;;;;;;14.77;71.08;100890.96;109476;1265;23037;-79
2023/09/28 04:12:15;;;;;;;26.80;24.20;;;;;;;14.76;71.27;100898.35;109889;1266;22091;-81
2023/09/28 04:14:49;;;;;;;34.60;31.20;;;;;;;14.73;71.28;100890.58;110299;1261;21977;-80
2023/09/28 04:17:21;;;;;;;31.30;28.00;;;;;;;14.71;71.31;100889.10;110745;1261;21990;-81
2023/09/28 04:20:09;;;;;;;30.30;25.20;;;;;;;14.63;71.20;100886.36;110734;1261;23592;-80
2023/09/28 04:22:58;;;;;;;27.40;23.20;;;;;;;14.59;71.39;100887.20;110654;1261;22738;-80
2023/09/28 04:25:56;;;;;;;28.50;25.30;;;;;;;14.59;71.38;100889.30;110820;1254;22546;-81
2023/09/28 04:28:51;;;;;;;30.80;27.60;;;;;;;14.55;71.59;100886.50;111208;1254;21925;-80
2023/09/28 04:31:35;;;;;;;29.60;26.40;;;;;;;14.54;71.67;100887.43;111247;1254;21979;-80
2023/09/28 04:34:41;;;;;;;30.70;27.50;;;;;;;14.52;71.92;100886.82;110700;1260;23273;-80
2023/09/28 04:37:32;;;;;;;34.10;27.70;;;;;;;14.51;72.03;100889.50;110551;1260;22121;-82
2023/09/28 04:40:54;;;;;;;31.50;28.20;;;;;;;14.48;72.16;100891.70;110860;1260;21990;-82
2023/09/28 04:43:55;;;;;;;31.40;28.20;;;;;;;14.43;72.39;100890.88;110556;1264;23716;-79
2023/09/28 04:46:49;;;;;;;33.20;29.90;;;;;;;14.41;72.39;100891.48;110511;1266;21989;-79
2023/09/28 04:49:55;;;;;;;31.30;27.60;;;;;;;14.39;72.48;100889.50;110326;1265;23740;-80
2023/09/28 04:52:38;;;;;;;32.30;28.80;;;;;;;14.36;72.58;100885.27;110553;1261;21994;-80
2023/09/28 04:55:16;;;;;;;32.30;28.90;;;;;;;14.35;72.56;100885.11;110509;1261;23703;-81
2023/09/28 04:58:00;;;;;;;35.00;29.10;;;;;;;14.34;72.65;100881.83;110686;1264;23059;-81
2023/09/28 05:01:00;;;;;;;38.20;27.80;;;;;;;14.29;72.71;100870.70;110309;1264;23836;-80
2023/09/28 05:03:50;;;;;;;33.30;29.90;;;;;;;14.23;72.88;100867.80;109807;1269;23040;-80
2023/09/28 05:06:41;;;;;;;30.50;27.60;;;;;;;14.30;73.11;100878.69;109696;1269;23607;-81
2023/09/28 05:09:18;;;;;;;31.50;28.20;;;;;;;14.33;73.36;100882.58;109027;1274;21974;-80
2023/09/28 05:11:53;;;;;;;30.40;27.10;;;;;;;14.39;73.43;100883.70;109139;1274;22288;-79
2023/09/28 05:14:51;;;;;;;38.30;28.80;;;;;;;14.38;73.44;100883.59;108835;1280;24319;-79
2023/09/28 05:17:28;;;;;;;32.20;28.80;;;;;;;14.41;73.66;100883.61;108958;1280;22424;-79
2023/09/28 05:20:17;;;;;;;31.00;27.80;;;;;;;14.46;73.79;100882.18;109442;1272;21973;-81
2023/09/28 05:23:25;;;;;;;31.10;27.80;;;;;;;14.49;73.75;100880.12;109741;1270;21995;-79
2023/09/28 05:26:15;;;;;;;32.40;29.00;;;;;;;14.52;73.83;100877.37;109745;1270;23592;-80
2023/09/28 05:28:54;;;;;;;30.70;27.60;;;;;;;14.56;73.81;100876.14;110181;1263;23628;-80
2023/09/28 05:31:37;;;;;;;31.40;28.40;;;;;;;14.62;73.92;100876.23;110350;1264;23646;-80
2023/09/28 05:34:17;;;;;;;40.40;29.90;;;;;;;14.67;73.85;100882.31;110716;1259;21980;-80
2023/09/28 05:37:26;;;;;;;32.20;28.80;;;;;;;14.71;73.87;100880.54;111111;1254;21983;-79
2023/09/28 05:40:13;;;;;;;30.00;26.50;;;;;;;14.75;74.02;100884.92;110813;1259;23687;-79
2023/09/28 05:42:58;;;;;;;31.30;27.00;;;;;;;14.80;73.96;100883.96;110804;1259;21977;-79
2023/09/28 05:45:49;;;;;;;31.90;27.80;;;;;;;14.85;73.92;100881.99;110646;1263;21962;-79
2023/09/28 05:48:25;;;;;;;30.60;27.30;;;;;;;14.91;74.06;100883.44;110451;1263;21965;-81
2023/09/28 05:51:01;;;;;;;30.50;27.40;;;;;;;14.98;74.05;100882.42;110225;1263;21972;-79
2023/09/28 05:53:48;;;;;;;30.10;26.70;;;;;;;15.02;74.10;100883.27;110505;1263;21997;-80
2023/09/28 05:56:24;;;;;;;30.70;26.30;;;;;;;15.08;74.05;100881.62;109686;1269;21974;-80
2023/09/28 05:59:15;;;;;;;30.10;27.20;;;;;;;15.12;74.11;100877.19;109752;1267;21969;-77
2023/09/28 06:02:07;;;;;;;29.40;26.30;;;;;;;15.17;74.10;100875.20;109582;1268;22007;-79
2023/09/28 06:04:44;;;;;;;28.70;25.70;;;;;;;15.22;74.26;100877.95;110227;1264;22384;-80
2023/09/28 06:07:28;;;;;;;31.60;27.50;;;;;;;15.27;74.20;100876.84;110176;1264;24373;-80
2023/09/28 06:10:00;;;;;;;28.40;25.60;;;;;;;15.32;74.21;100877.11;110308;1264;22031;-79
2023/09/28 06:12:37;;;;;;;27.70;25.10;;;;;;;15.37;74.15;100875.44;110551;1264;22071;-80
2023/09/28 06:15:10;;;;;;;29.40;26.30;;;;;;;15.43;74.20;100879.55;110421;1261;22110;-79
2023/09/28 06:17:58;;;;;;;29.20;26.40;;;;;;;15.47;74.21;100880.73;110490;1260;23711;-80
2023/09/28 06:20:55;;;;;;;27.70;25.00;;;;;;;15.55;74.24;100881.39;110183;1260;21965;-79
2023/09/28 06:23:38;;;;;;;30.20;24.70;;;;;;;15.65;74.17;100882.67;110842;1260;23703;-80
2023/09/28 06:26:58;;;;;;;29.00;25.40;;;;;;;15.75;74.15;100883.75;110866;1259;21964;-78
2023/09/28 06:30:06;;;;;;;28.30;25.70;;;;;;;15.89;74.09;100879.71;110623;1259;21965;-81
2023/09/28 06:32:43;;;;;;;27.70;24.80;;;;;;;16.06;74.13;100880.61;110764;1259;23606;-82
2023/09/28 06:35:14;;;;;;;27.40;24.50;;;;;;;16.26;73.91;100882.20;110825;1259;21964;-81
2023/09/28 06:38:05;;;;;;;26.00;23.50;;;;;;;16.48;73.89;100879.61;110576;1259;21957;-80
2023/09/28 06:40:57;;;;;;;26.70;24.10;;;;;;;16.80;73.64;100881.01;111086;1257;23615;-81
2023/09/28 06:43:41;;;;;;;23.90;21.50;;;;;;;17.09;73.30;100882.05;110958;1257;22003;-80
2023/09/28 06:46:38;;;;;;;24.20;21.10;;;;;;;17.49;73.10;100880.33;111026;1257;23748;-81
2023/09/28 06:49:15;;;;;;;24.10;21.70;;;;;;;17.97;72.84;100880.65;111271;1260;21961;-81
2023/09/28 06:51:50;;;;;;;;;;;;;;;18.47;71.93;100882.68;110708;1260;22816;-82
2023/09/28 06:54:38;;;;;;;24.50;21.40;;;;;;;18.93;70.89;100883.02;110047;1265;22612;-81
2023/09/28 06:57:17;;;;;;;24.50;22.10;;;;;;;19.37;69.91;100885.40;109962;1265;21994;-82
2023/09/28 07:00:08;;;;;;;24.60;22.10;;;;;;;19.84;68.08;100883.74;110058;1265;22425;-80
2023/09/28 07:02:52;;;;;;;23.50;21.10;;;;;;;20.30;66.91;100886.55;110209;1265;23432;-84
2023/09/28 07:05:32;;;;;;;21.40;19.30;;;;;;;20.74;65.14;100887.94;109845;1265;21989;-84
2023/09/28 07:08:24;;;;;;;20.60;18.40;;;;;;;21.07;63.52;100889.58;110379;1263;22007;-82
2023/09/28 07:11:19;;;;;;;20.60;18.50;;;;;;;21.46;62.42;100893.65;110530;1261;21967;-85
2023/09/28 07:14:02;;;;;;;19.90;17.90;;;;;;;21.81;61.38;100891.30;110731;1260;21994;-82
2023/09/28 07:16:41;;;;;;;23.20;18.00;;;;;;;22.13;60.18;100891.04;110336;1265;22836;-83
2023/09/28 07:19:27;;;;;;;22.50;17.80;;;;;;;22.40;59.43;100892.79;110042;1265;22044;-83
2023/09/28 07:22:21;;;;;;;20.40;17.20;;;;;;;22.67;58.10;100879.73;110509;1260;21990;-85
2023/09/28 07:25:07;;;;;;;18.00;16.30;;;;;;;22.94;57.42;100889.55;109537;1270;21980;-84
2023/09/28 07:27:52;;;;;;;18.20;16.50;;;;;;;23.22;56.71;100885.88;109556;1270;23753;-81
2023/09/28 07:31:00;;;;;;;19.80;16.20;;;;;;;23.49;55.94;100892.91;109781;1270;22707;-85
2023/09/28 07:33:39;;;;;;;26.20;15.00;;;;;;;23.67;54.38;100895.42;109619;1266;21992;-90
2023/09/28 07:36:27;;;;;;;19.60;16.10;;;;;;;23.81;53.48;100897.71;109980;1267;22033;-79
2023/09/28 07:39:25;;;;;;;19.10;13.60;;;;;;;23.91;52.71;100896.09;110618;1259;21960;-79
2023/09/28 07:42:07;;;;;;;17.80;13.80;;;;;;;24.10;52.32;100897.35;110763;1262;23844;-81
2023/09/28 07:44:40;;;;;;;45.70;16.80;;;;;;;24.35;52.09;100893.27;111149;1257;21959;-79
2023/09/28 07:47:43;;;;;;;17.20;14.60;;;;;;;24.48;50.41;100897.64;111096;1257;21965;-80
2023/09/28 07:50:28;;;;;;;15.30;13.20;;;;;;;24.64;50.20;100901.05;110315;1264;23414;-79
2023/09/28 07:53:49;;;;;;;;;;;;;;;;;;;;;
2023/09/28 07:57:02;;;;;;;18.40;14.00;;;;;;;25.14;49.52;100902.39;109343;1268;21982;-78
2023/09/28 07:59:48;;;;;;;18.30;13.50;;;;;;;25.39;48.52;100899.86;109257;1272;23666;-77
2023/09/28 08:02:57;;;;;;;14.50;12.40;;;;;;;25.48;46.75;100899.21;109746;1271;23692;-79
2023/09/28 08:06:10;;;;;;;17.60;12.70;;;;;;;25.57;46.86;100900.70;109720;1271;21980;-87
2023/09/28 08:09:14;;;;;;;13.40;12.00;;;;;;;25.85;46.81;100899.89;109932;1267;21968;-82
2023/09/28 08:11:59;;;;;;;22.20;12.40;;;;;;;26.07;45.55;100897.24;110663;1257;21983;-82
2023/09/28 08:14:47;;;;;;;13.10;10.60;;;;;;;26.26;45.15;100900.48;110900;1257;21981;-82
2023/09/28 08:17:39;;;;;;;12.60;9.80;;;;;;;26.51;44.90;100900.06;110976;1253;22974;-80
2023/09/28 08:20:20;;;;;;;20.80;10.20;;;;;;;26.73;43.63;100897.04;111222;1253;21968;-81
2023/09/28 08:23:48;;;;;;;14.00;9.00;;;;;;;26.82;42.23;100894.50;110884;1258;21973;-80
2023/09/28 08:26:33;;;;;;;14.00;8.50;;;;;;;26.88;41.50;100893.28;110361;1262;21960;-79
2023/09/28 08:29:08;;;;;;;16.70;11.40;;;;;;;27.01;41.27;100892.48;110589;1250;22717;-82
2023/09/28 08:31:47;;;;;;;16.90;9.40;;;;;;;27.22;40.53;100895.79;110397;1262;23820;-79
2023/09/28 08:34:32;;;;;;;14.20;9.60;;;;;;;27.33;40.16;100892.77;110528;1262;22736;-80
2023/09/28 08:37:17;;;;;;;12.20;9.10;;;;;;;27.39;39.51;100892.90;110582;1262;21996;-79
2023/09/28 08:39:54;;;;;;;12.80;8.80;;;;;;;27.49;39.54;100890.77;110596;1262;22473;-79
2023/09/28 08:42:37;;;;;;;15.30;7.90;;;;;;;27.70;39.37;100893.83;110647;1259;21962;-80
2023/09/28 08:45:16;;;;;;;11.30;8.00;;;;;;;27.84;38.41;100897.48;111046;1253;21945;-79
2023/09/28 08:48:01;;;;;;;26.30;11.10;;;;;;;27.90;37.77;100896.29;111195;1253;22089;-82
2023/09/28 08:50:42;;;;;;;16.10;9.50;;;;;;;28.17;38.72;100892.77;111407;1253;21979;-78
2023/09/28 08:53:19;;;;;;;12.50;8.20;;;;;;;28.46;37.55;100896.92;111106;1253;21957;-77
2023/09/28 08:56:00;;;;;;;13.10;8.30;;;;;;;28.61;36.50;100896.12;111202;1254;22067;-78
2023/09/28 08:58:51;;;;;;;12.50;8.40;;;;;;;28.71;36.07;100895.36;110762;1254;21969;-76
2023/09/28 09:01:44;;;;;;;11.90;8.20;;;;;;;28.90;36.27;100890.40;111158;1254;21972;-78
2023/09/28 09:04:24;;;;;;;;;;;;;;;29.04;35.34;100889.14;110203;1259;23576;-78
2023/09/28 09:07:04;;;;;;;11.50;7.60;;;;;;;29.09;35.12;100890.80;110230;1264;23734;-77
2023/09/28 09:09:47;;;;;;;9.20;7.70;;;;;;;29.20;35.23;100890.08;109599;1268;23708;-78
2023/09/28 09:12:24;;;;;;;15.20;7.60;;;;;;;29.33;34.80;100888.54;109529;1268;21968;-79
2023/09/28 09:15:03;;;;;;;12.60;8.00;;;;;;;29.51;35.00;100887.83;109511;1268;23033;-79
2023/09/28 09:18:01;;;;;;;16.30;8.20;;;;;;;29.72;34.36;100888.60;109423;1268;22073;-78
2023/09/28 09:20:41;;;;;;;14.40;7.90;;;;;;;29.80;33.65;100887.39;109196;1273;22833;-77
2023/09/28 09:23:15;;;;;;;10.50;6.90;;;;;;;29.81;33.32;100884.98;108932;1276;22756;-79
2023/09/28 09:26:00;;;;;;;17.30;8.40;;;;;;;29.95;34.05;100884.08;109199;1272;21989;-78
2023/09/28 09:29:00;;;;;;;11.20;7.00;;;;;;;30.18;33.41;100885.98;109882;1266;21994;-78
2023/09/28 09:31:56;;;;;;;10.80;7.00;;;;;;;30.19;32.74;100882.91;109507;1270;23059;-79
2023/09/28 09:34:43;;;;;;;9.30;6.80;;;;;;;30.16;32.44;100878.05;109403;1272;22248;-77
2023/09/28 09:37:15;;;;;;;16.10;7.30;;;;;;;30.26;32.54;100880.46;109307;1272;21966;-78
2023/09/28 09:40:18;;;;;;;9.90;7.00;;;;;;;30.43;32.65;100878.70;110295;1265;22057;-76
2023/09/28 09:42:56;;;;;;;13.60;6.50;;;;;;;30.58;31.66;100876.64;110093;1265;22465;-77
2023/09/28 09:45:35;;;;;;;13.80;7.70;;;;;;;30.61;31.54;100878.68;110265;1265;24349;-77
2023/09/28 09:48:12;;;;;;;8.30;6.40;;;;;;;30.69;31.68;100874.14;109940;1265;23704;-78
2023/09/28 09:50:52;;;;;;;13.80;6.70;;;;;;;30.81;31.80;100875.84;110175;1263;23028;-78
2023/09/28 09:53:34;;;;;;;12.40;6.10;;;;;;;30.99;31.20;100869.58;109839;1270;22044;-78
2023/09/28 09:56:10;;;;;;;8.50;6.10;;;;;;;31.08;30.60;100866.09;109631;1267;23005;-76
2023/09/28 09:59:00;;;;;;;13.50;6.30;;;;;;;31.16;30.68;100868.21;109612;1269;23660;-78
2023/09/28 10:01:39;;;;;;;10.80;6.30;;;;;;;31.32;30.77;100856.92;109859;1265;23696;-76
2023/09/28 10:04:32;;;;;;;13.30;7.30;;;;;;;31.71;30.96;100861.64;110043;1265;22827;-77
2023/09/28 10:07:20;;;;;;;13.80;5.60;;;;;;;31.98;29.24;100856.84;109931;1265;21974;-78
2023/09/28 10:10:05;;;;;;;19.70;6.10;;;;;;;31.97;28.52;100858.02;110606;1256;23043;-78
2023/09/28 10:12:39;;;;;;;10.00;4.50;;;;;;;31.95;27.67;100856.84;110866;1254;21955;-78
2023/09/28 10:15:28;;;;;;;14.50;4.60;;;;;;;32.00;26.85;100860.70;110456;1261;21972;-77
2023/09/28 10:18:13;;;;;;;9.90;4.50;;;;;;;32.00;26.15;100855.85;110447;1260;21975;-77
2023/09/28 10:21:04;;;;;;;12.50;5.10;;;;;;;32.15;26.45;100852.44;110430;1260;23474;-77
2023/09/28 10:23:42;;;;;;;11.70;4.50;;;;;;;32.26;25.62;100854.36;110715;1259;22207;-79
2023/09/28 10:26:23;;;;;;;10.00;4.40;;;;;;;32.44;25.27;100853.19;110617;1259;21994;-77
2023/09/28 10:29:08;;;;;;;8.50;4.50;;;;;;;32.38;24.42;100854.02;109806;1263;21998;-78
2023/09/28 10:31:52;;;;;;;15.60;4.10;;;;;;;32.35;24.71;100860.14;110150;1263;23602;-78
2023/09/28 10:34:29;;;;;;;9.40;4.70;;;;;;;32.37;24.47;100855.05;110323;1263;21976;-78
2023/09/28 10:37:10;;;;;;;10.20;4.70;;;;;;;32.41;24.53;100855.27;110252;1263;21977;-78
2023/09/28 10:40:19;;;;;;;12.10;5.10;;;;;;;32.50;24.42;100851.59;110372;1258;21957;-77
2023/09/28 10:43:58;;;;;;;10.50;4.70;;;;;;;32.59;24.47;100851.22;110328;1265;21966;-77
2023/09/28 10:46:50;;;;;;;10.70;4.60;;;;;;;32.61;24.61;100853.00;110324;1261;21968;-77
2023/09/28 10:49:28;;;;;;;11.20;4.50;;;;;;;32.66;24.68;100856.09;110543;1258;23694;-77
2023/09/28 10:52:11;;;;;;;10.10;4.90;;;;;;;32.60;24.21;100856.51;110588;1247;23028;-78
2023/09/28 10:54:46;;;;;;;13.60;4.60;;;;;;;32.41;24.28;100851.82;110317;1260;23169;-79
2023/09/28 10:57:18;;;;;;;9.40;4.80;;;;;;;32.18;24.54;100851.36;110584;1261;23748;-78
2023/09/28 11:00:48;;;;;;;18.10;5.60;;;;;;;31.96;25.07;100846.02;110591;1260;21968;-78
2023/09/28 11:03:35;;;;;;;12.70;4.40;;;;;;;31.71;25.02;100848.77;110047;1265;22873;-77
2023/09/28 11:06:25;;;;;;;10.40;5.00;;;;;;;31.36;25.29;100839.27;110291;1258;23849;-76
2023/09/28 11:13:25;;;;;;;;;;;;;;;30.59;25.76;100834.32;108963;1276;22562;-76
2023/09/28 11:16:49;;;;;;;9.80;4.10;;;;;;;30.14;25.59;100837.17;108987;1276;22848;-77
2023/09/28 11:19:57;;;;;;;10.10;4.30;;;;;;;29.79;26.05;100834.73;108539;1283;22442;-78
2023/09/28 11:22:37;;;;;;;17.80;5.50;;;;;;;29.70;26.51;100831.43;108513;1283;21995;-78
2023/09/28 11:25:43;;;;;;;7.80;5.40;;;;;;;29.51;26.12;100828.77;108763;1283;21995;-76
2023/09/28 11:28:41;;;;;;;;;;;;;;;;;;;;;
2023/09/28 11:31:35;;;;;;;13.70;6.50;;;;;;;29.17;26.82;100830.64;108508;1283;22096;-81
2023/09/28 11:34:50;;;;;;;8.30;4.10;;;;;;;28.99;27.95;100831.54;108408;1284;22738;-80
2023/09/28 11:37:53;;;;;;;10.90;4.40;;;;;;;28.78;27.63;100832.36;108974;1277;21993;-79
2023/09/28 11:40:50;;;;;;;9.90;4.30;;;;;;;28.63;27.79;100826.65;109163;1273;22119;-77
2023/09/28 11:43:34;;;;;;;13.20;4.40;;;;;;;28.48;27.46;100825.83;108978;1275;24548;-77
2023/09/28 11:46:26;;;;;;;14.20;6.20;;;;;;;28.40;27.60;100821.31;108917;1271;23690;-76
2023/09/28 11:49:18;;;;;;;7.80;4.60;;;;;;;28.35;28.21;100823.48;109618;1258;23180;-78
2023/09/28 11:52:02;;;;;;;12.20;4.70;;;;;;;28.35;28.15;100817.05;110482;1258;21968;-78
2023/09/28 11:54:43;;;;;;;6.50;4.10;;;;;;;28.31;28.20;100805.48;110483;1258;22038;-79
2023/09/28 11:57:22;;;;;;;20.10;17.70;;;;;;;28.27;27.79;100802.63;110290;1257;22881;-78
2023/09/28 12:00:07;;;;;;;14.40;6.40;;;;;;;28.29;28.00;100810.89;110346;1263;22050;-79
2023/09/28 12:02:42;;;;;;;10.70;5.50;;;;;;;28.25;28.01;100812.51;110303;1264;22768;-79
2023/09/28 12:05:23;;;;;;;8.20;4.70;;;;;;;28.20;27.84;100809.67;110123;1264;23058;-80
2023/09/28 12:08:17;;;;;;;13.80;5.00;;;;;;;28.11;27.80;100810.05;110186;1264;24222;-79
2023/09/28 12:11:00;;;;;;;8.40;5.90;;;;;;;28.04;28.13;100807.36;109783;1269;21983;-78
2023/09/28 12:13:59;;;;;;;8.40;4.90;;;;;;;28.05;28.64;100804.45;109544;1269;22327;-78
2023/09/28 12:16:54;;;;;;;20.00;5.40;;;;;;;28.05;28.74;100805.36;110099;1265;23696;-79
2023/09/28 12:19:45;;;;;;;9.40;4.70;;;;;;;28.08;29.15;100800.71;110008;1264;21980;-79
2023/09/28 12:22:52;;;;;;;13.00;5.40;;;;;;;28.08;29.10;100804.84;110302;1263;21975;-79
2023/09/28 12:25:49;;;;;;;9.20;5.00;;;;;;;28.02;28.60;100804.56;110299;1263;21987;-78
2023/09/28 12:28:30;;;;;;;7.00;4.90;;;;;;;27.96;28.53;100801.39;110509;1258;21998;-78
2023/09/28 12:31:23;;;;;;;9.20;4.50;;;;;;;27.94;28.54;100805.91;110609;1258;22183;-79
2023/09/28 12:34:14;;;;;;;;;;;;;;;;;;;;;
2023/09/28 12:37:09;;;;;;;11.40;4.50;;;;;;;27.86;28.37;100798.81;110664;1258;21997;-77
2023/09/28 12:40:11;;;;;;;9.40;4.70;;;;;;;27.84;28.46;100795.80;110680;1251;22006;-77
2023/09/28 12:43:12;;;;;;;10.10;4.60;;;;;;;27.80;28.00;100793.70;110692;1258;21971;-78
2023/09/28 12:46:25;;;;;;;12.80;4.60;;;;;;;27.78;27.90;100795.37;110432;1262;21962;-79
2023/09/28 12:49:15;;;;;;;8.90;4.00;;;;;;;27.76;27.19;100796.46;110558;1260;21966;-78
2023/09/28 12:52:07;;;;;;;4.80;3.50;;;;;;;27.76;27.27;100790.80;110523;1262;23755;-78
2023/09/28 12:55:01;;;;;;;10.00;3.60;;;;;;;27.75;27.32;100783.06;110372;1257;22411;-77